Time;durP1;ratioP1;P1;durP2;ratioP2;P2;SDS_P1;SDS_P2;PMS_P1;PMS_P2;Temp;Humidity;BMP_temperature;BMP_pressure;BME280_temperature;BME280_humidity;BME280_pressure;Samples;Min_cycle;Max_cycle;Signal;HPM_P1;HPM_P2
2023/08/30 00:01:24;;;;;;;10.00;8.90;;;;;;;;;;4993064;28;20235;-70
2023/08/30 00:03:50;;;;;;;9.93;9.20;;;;;;;;;;4993500;28;20207;-70
2023/08/30 00:06:16;;;;;;;9.20;8.60;;;;;;;;;;4993549;28;20204;-70
2023/08/30 00:08:44;;;;;;;10.23;9.43;;;;;;;;;;4993367;28;20203;-70
2023/08/30 00:11:10;;;;;;;9.98;9.07;;;;;;;;;;4992731;28;20707;-70
2023/08/30 00:13:36;;;;;;;10.98;10.18;;;;;;;;;;4993314;28;20690;-70
2023/08/30 00:16:03;;;;;;;10.05;9.13;;;;;;;;;;4993150;28;20204;-69
2023/08/30 00:18:29;;;;;;;10.50;9.50;;;;;;;;;;4992924;28;20725;-70
2023/08/30 00:20:56;;;;;;;10.30;8.85;;;;;;;;;;4992805;28;20662;-69
2023/08/30 00:23:23;;;;;;;10.25;9.18;;;;;;;;;;4992790;28;20398;-70
2023/08/30 00:25:50;;;;;;;10.90;10.00;;;;;;;;;;4992892;28;20201;-70
2023/08/30 00:28:16;;;;;;;9.55;8.90;;;;;;;;;;4992772;28;20671;-70
2023/08/30 00:30:43;;;;;;;10.63;9.38;;;;;;;;;;4992572;28;20226;-70
2023/08/30 00:33:09;;;;;;;12.85;8.85;;;;;;;;;;4992779;28;20207;-70
2023/08/30 00:35:35;;;;;;;10.75;9.65;;;;;;;;;;4992674;28;20234;-70
2023/08/30 00:38:01;;;;;;;10.23;9.32;;;;;;;;;;4992789;28;20207;-70
2023/08/30 00:40:29;;;;;;;10.13;9.25;;;;;;;;;;4992395;28;20235;-70
2023/08/30 00:42:57;;;;;;;10.57;9.65;;;;;;;;;;4992489;28;20195;-69
2023/08/30 00:45:23;;;;;;;10.25;9.45;;;;;;;;;;4992243;28;20215;-69
2023/08/30 00:47:49;;;;;;;9.98;9.30;;;;;;;;;;4992559;28;20282;-70
2023/08/30 00:50:16;;;;;;;9.85;9.07;;;;;;;;;;4992713;28;20202;-69
2023/08/30 00:52:42;;;;;;;9.65;8.95;;;;;;;;;;4992204;28;20238;-70
2023/08/30 00:55:09;;;;;;;10.88;9.68;;;;;;;;;;4992490;28;20226;-70
2023/08/30 00:57:36;;;;;;;10.75;9.85;;;;;;;;;;4992177;28;20203;-70
2023/08/30 01:00:04;;;;;;;11.43;10.38;;;;;;;;;;4992255;28;20214;-70
2023/08/30 01:02:31;;;;;;;10.32;9.40;;;;;;;;;;4992118;28;20695;-70
2023/08/30 01:04:57;;;;;;;10.95;10.15;;;;;;;;;;4992526;28;20214;-70
2023/08/30 01:07:24;;;;;;;10.77;9.95;;;;;;;;;;4992552;28;20678;-70
2023/08/30 01:09:50;;;;;;;10.32;9.48;;;;;;;;;;4990945;28;20191;-70
2023/08/30 01:12:18;;;;;;;10.88;9.88;;;;;;;;;;4991756;28;20219;-70
2023/08/30 01:14:46;;;;;;;10.90;10.00;;;;;;;;;;4992238;28;20214;-70
2023/08/30 01:17:15;;;;;;;10.82;9.82;;;;;;;;;;4992376;28;20589;-71
2023/08/30 01:19:46;;;;;;;11.45;10.10;;;;;;;;;;4992169;28;20758;-70
2023/08/30 01:22:15;;;;;;;11.40;10.48;;;;;;;;;;4991980;28;20254;-71
2023/08/30 01:24:45;;;;;;;10.98;10.00;;;;;;;;;;4992384;28;20301;-71
2023/08/30 01:27:13;;;;;;;10.55;9.75;;;;;;;;;;4991979;28;20199;-71
2023/08/30 01:29:41;;;;;;;10.90;10.00;;;;;;;;;;4992446;28;20222;-70
2023/08/30 01:32:08;;;;;;;10.65;9.75;;;;;;;;;;4991785;28;20238;-70
2023/08/30 01:34:34;;;;;;;12.00;10.68;;;;;;;;;;4991952;28;20589;-70
2023/08/30 01:37:01;;;;;;;11.48;10.57;;;;;;;;;;4992267;28;20207;-70
2023/08/30 01:39:27;;;;;;;11.60;10.70;;;;;;;;;;4991837;28;20203;-70
2023/08/30 01:41:58;;;;;;;10.70;9.88;;;;;;;;;;4975883;28;20225;-70
2023/08/30 01:44:26;;;;;;;12.13;10.95;;;;;;;;;;4992605;28;20203;-70
2023/08/30 01:46:53;;;;;;;11.93;10.88;;;;;;;;;;4991850;28;20210;-70
2023/08/30 01:49:19;;;;;;;12.45;11.35;;;;;;;;;;4991853;28;20569;-70
2023/08/30 01:51:45;;;;;;;11.48;10.48;;;;;;;;;;4991345;28;20227;-70
2023/08/30 01:54:13;;;;;;;11.20;10.30;;;;;;;;;;4991703;28;20210;-70
2023/08/30 01:56:39;;;;;;;11.77;10.77;;;;;;;;;;4991676;28;20207;-70
2023/08/30 01:59:05;;;;;;;12.15;11.18;;;;;;;;;;4995619;28;20210;-70
2023/08/30 02:01:33;;;;;;;11.02;10.32;;;;;;;;;;4995185;28;20227;-70
2023/08/30 02:04:00;;;;;;;12.18;11.20;;;;;;;;;;4995622;28;20200;-70
2023/08/30 02:06:29;;;;;;;11.75;10.85;;;;;;;;;;4995539;28;20222;-70
2023/08/30 02:08:56;;;;;;;11.75;10.70;;;;;;;;;;4995399;28;20672;-70
2023/08/30 02:11:23;;;;;;;12.65;11.57;;;;;;;;;;4995073;28;20220;-70
2023/08/30 02:13:51;;;;;;;13.02;11.93;;;;;;;;;;4995368;28;20247;-70
2023/08/30 02:16:18;;;;;;;11.80;10.70;;;;;;;;;;4995584;28;20207;-70
2023/08/30 02:18:46;;;;;;;12.65;11.45;;;;;;;;;;4995258;28;20206;-70
2023/08/30 02:21:12;;;;;;;11.98;10.95;;;;;;;;;;4994748;28;20223;-70
2023/08/30 02:23:39;;;;;;;11.50;10.45;;;;;;;;;;4995469;28;20199;-70
2023/08/30 02:26:05;;;;;;;16.35;11.45;;;;;;;;;;4995210;28;20206;-70
2023/08/30 02:28:31;;;;;;;11.95;10.95;;;;;;;;;;4995161;28;20203;-70
2023/08/30 02:30:58;;;;;;;11.98;10.32;;;;;;;;;;4994722;28;20223;-70
2023/08/30 02:33:24;;;;;;;11.82;10.85;;;;;;;;;;4994909;28;20207;-70
2023/08/30 02:35:53;;;;;;;11.32;10.43;;;;;;;;;;4994747;28;20597;-70
2023/08/30 02:38:19;;;;;;;11.95;10.95;;;;;;;;;;4995125;28;20213;-70
2023/08/30 02:40:46;;;;;;;12.90;11.68;;;;;;;;;;4994763;28;20219;-70
2023/08/30 02:43:12;;;;;;;11.95;10.95;;;;;;;;;;4994834;28;20199;-70
2023/08/30 02:45:38;;;;;;;11.68;10.77;;;;;;;;;;4994808;28;20270;-71
2023/08/30 02:48:05;;;;;;;12.25;11.25;;;;;;;;;;4994878;28;20234;-71
2023/08/30 02:50:32;;;;;;;12.63;11.52;;;;;;;;;;4994826;28;20199;-70
2023/08/30 02:52:59;;;;;;;11.82;10.93;;;;;;;;;;4994460;28;20271;-70
2023/08/30 02:55:25;;;;;;;12.60;11.40;;;;;;;;;;4994643;28;20211;-70
2023/08/30 02:57:52;;;;;;;13.02;11.73;;;;;;;;;;4994363;28;20667;-71
2023/08/30 03:00:18;;;;;;;13.20;11.80;;;;;;;;;;4994663;28;20645;-71
2023/08/30 03:02:44;;;;;;;12.52;11.43;;;;;;;;;;4994115;28;20226;-71
2023/08/30 03:05:11;;;;;;;12.40;11.30;;;;;;;;;;4994379;28;20207;-70
2023/08/30 03:07:38;;;;;;;13.20;12.10;;;;;;;;;;4994652;28;20638;-70
2023/08/30 03:10:06;;;;;;;13.55;12.45;;;;;;;;;;4993994;28;20199;-69
2023/08/30 03:12:32;;;;;;;13.00;11.80;;;;;;;;;;4993875;28;20699;-70
2023/08/30 03:14:59;;;;;;;12.85;11.85;;;;;;;;;;4994123;28;20195;-70
2023/08/30 03:17:25;;;;;;;13.00;11.85;;;;;;;;;;4994345;28;20202;-70
2023/08/30 03:19:52;;;;;;;12.30;11.20;;;;;;;;;;4994261;28;20199;-70
2023/08/30 03:22:19;;;;;;;15.85;12.82;;;;;;;;;;4993741;28;20310;-71
2023/08/30 03:24:45;;;;;;;13.50;12.20;;;;;;;;;;4994050;28;20208;-70
2023/08/30 03:27:12;;;;;;;12.55;11.45;;;;;;;;;;4994114;28;20340;-70
2023/08/30 03:29:39;;;;;;;14.20;12.82;;;;;;;;;;4994402;28;20207;-70
2023/08/30 03:32:05;;;;;;;13.68;12.48;;;;;;;;;;4985716;28;20215;-70
2023/08/30 03:34:32;;;;;;;12.75;11.55;;;;;;;;;;4994185;28;20257;-69
2023/08/30 03:36:58;;;;;;;13.88;12.45;;;;;;;;;;4993964;28;20218;-70
2023/08/30 03:39:24;;;;;;;14.23;12.70;;;;;;;;;;4993963;28;20203;-70
2023/08/30 03:41:50;;;;;;;12.75;11.57;;;;;;;;;;4993277;28;20573;-71
2023/08/30 03:44:18;;;;;;;11.55;10.68;;;;;;;;;;4993908;28;20204;-71
2023/08/30 03:46:44;;;;;;;12.00;11.00;;;;;;;;;;4993994;28;20199;-70
2023/08/30 03:49:10;;;;;;;15.05;11.18;;;;;;;;;;4993700;28;20679;-69
2023/08/30 03:51:37;;;;;;;13.07;11.25;;;;;;;;;;4993445;28;20215;-69
2023/08/30 03:54:03;;;;;;;12.27;11.27;;;;;;;;;;4994222;28;20210;-70
2023/08/30 03:56:29;;;;;;;12.05;11.15;;;;;;;;;;4994115;28;20253;-70
2023/08/30 03:58:56;;;;;;;12.07;10.85;;;;;;;;;;4993450;28;20683;-70
2023/08/30 04:01:23;;;;;;;11.88;10.75;;;;;;;;;;4993017;28;20324;-69
2023/08/30 04:03:49;;;;;;;12.40;11.20;;;;;;;;;;4993473;28;20199;-70
2023/08/30 04:06:16;;;;;;;13.30;12.15;;;;;;;;;;4993403;28;20207;-70
2023/08/30 04:08:42;;;;;;;12.55;11.32;;;;;;;;;;4993331;28;20203;-70
2023/08/30 04:11:08;;;;;;;14.20;12.82;;;;;;;;;;4992940;28;20222;-71
2023/08/30 04:13:35;;;;;;;12.88;11.73;;;;;;;;;;4993396;28;20203;-70
2023/08/30 04:16:01;;;;;;;13.10;12.00;;;;;;;;;;4992882;28;20215;-62
2023/08/30 04:18:29;;;;;;;13.23;12.13;;;;;;;;;;4993213;28;20210;-64
2023/08/30 04:20:55;;;;;;;14.23;12.90;;;;;;;;;;4991806;28;20223;-63
2023/08/30 04:23:21;;;;;;;15.45;13.95;;;;;;;;;;4993063;28;20199;-63
2023/08/30 04:25:47;;;;;;;15.32;13.02;;;;;;;;;;4992982;28;20306;-62
2023/08/30 04:28:13;;;;;;;14.05;12.63;;;;;;;;;;4992844;28;20586;-62
2023/08/30 04:30:40;;;;;;;13.52;12.25;;;;;;;;;;4993027;28;20195;-64
2023/08/30 04:33:06;;;;;;;13.30;12.18;;;;;;;;;;4993042;28;20210;-64
2023/08/30 04:35:34;;;;;;;13.68;12.25;;;;;;;;;;4993033;28;20388;-65
2023/08/30 04:38:01;;;;;;;13.45;12.18;;;;;;;;;;4992926;28;20207;-64
2023/08/30 04:40:27;;;;;;;12.90;11.80;;;;;;;;;;4992779;28;20203;-64
2023/08/30 04:42:53;;;;;;;14.32;13.07;;;;;;;;;;4992441;28;20207;-63
2023/08/30 04:45:19;;;;;;;14.02;12.77;;;;;;;;;;4992896;28;20213;-63
2023/08/30 04:47:46;;;;;;;13.27;11.98;;;;;;;;;;4992586;28;20644;-63
2023/08/30 04:50:12;;;;;;;14.65;11.65;;;;;;;;;;4984884;28;20258;-64
2023/08/30 04:52:39;;;;;;;14.43;12.93;;;;;;;;;;4992242;28;20234;-64
2023/08/30 04:55:06;;;;;;;13.85;12.68;;;;;;;;;;4995789;28;20219;-64
2023/08/30 04:57:33;;;;;;;12.95;11.68;;;;;;;;;;4994271;28;20405;-63
2023/08/30 04:59:59;;;;;;;13.60;12.32;;;;;;;;;;4992597;28;20210;-62
2023/08/30 05:02:25;;;;;;;13.48;12.18;;;;;;;;;;4992170;28;20226;-63
2023/08/30 05:04:52;;;;;;;13.18;11.90;;;;;;;;;;4992336;28;20249;-62
2023/08/30 05:07:18;;;;;;;13.02;11.82;;;;;;;;;;4992403;28;20585;-63
2023/08/30 05:09:46;;;;;;;14.57;12.45;;;;;;;;;;4992146;28;20575;-63
2023/08/30 05:12:12;;;;;;;13.07;11.98;;;;;;;;;;4991725;28;20758;-63
2023/08/30 05:14:40;;;;;;;14.70;11.40;;;;;;;;;;4992561;28;20587;-63
2023/08/30 05:17:07;;;;;;;13.05;11.85;;;;;;;;;;4992195;28;20203;-63
2023/08/30 05:19:33;;;;;;;13.27;12.27;;;;;;;;;;4992421;28;20290;-63
2023/08/30 05:21:59;;;;;;;13.60;12.50;;;;;;;;;;4991570;28;20299;-64
2023/08/30 05:24:28;;;;;;;13.30;12.10;;;;;;;;;;4992278;28;20199;-63
2023/08/30 05:26:55;;;;;;;12.90;11.48;;;;;;;;;;4992377;28;20225;-62
2023/08/30 05:29:22;;;;;;;13.57;12.30;;;;;;;;;;4992228;28;20199;-63
2023/08/30 05:31:48;;;;;;;13.48;12.38;;;;;;;;;;4992886;28;20222;-62
2023/08/30 05:34:14;;;;;;;12.52;11.43;;;;;;;;;;4998680;28;20210;-63
2023/08/30 05:36:40;;;;;;;12.43;11.32;;;;;;;;;;4998539;28;20195;-63
2023/08/30 05:39:07;;;;;;;13.00;11.98;;;;;;;;;;4998302;28;20214;-62
2023/08/30 05:41:33;;;;;;;13.25;12.05;;;;;;;;;;4998215;28;20667;-63
2023/08/30 05:44:00;;;;;;;12.70;11.50;;;;;;;;;;4998535;28;20207;-62
2023/08/30 05:46:27;;;;;;;11.80;10.80;;;;;;;;;;4998551;28;20203;-62
2023/08/30 05:48:54;;;;;;;11.75;10.85;;;;;;;;;;4998509;28;20202;-62
2023/08/30 05:51:20;;;;;;;12.13;11.05;;;;;;;;;;4997923;28;20214;-63
2023/08/30 05:53:47;;;;;;;13.10;11.93;;;;;;;;;;4998264;28;20231;-63
2023/08/30 05:56:13;;;;;;;11.50;10.60;;;;;;;;;;4998385;28;20222;-63
2023/08/30 05:58:39;;;;;;;12.00;11.00;;;;;;;;;;4998732;28;20195;-63
2023/08/30 06:01:07;;;;;;;12.13;11.20;;;;;;;;;;4998087;28;20219;-61
2023/08/30 06:03:33;;;;;;;12.13;10.75;;;;;;;;;;4998537;28;20718;-62
2023/08/30 06:05:59;;;;;;;10.95;10.15;;;;;;;;;;4998765;28;20585;-62
2023/08/30 06:08:26;;;;;;;10.55;9.75;;;;;;;;;;4999420;28;20195;-63
2023/08/30 06:10:52;;;;;;;12.45;11.32;;;;;;;;;;4998229;28;20219;-63
2023/08/30 06:13:18;;;;;;;12.52;11.40;;;;;;;;;;4991536;28;20214;-61
2023/08/30 06:15:45;;;;;;;11.75;10.85;;;;;;;;;;5001181;28;20207;-61
2023/08/30 06:18:13;;;;;;;11.48;10.45;;;;;;;;;;5001580;28;20229;-61
2023/08/30 06:20:40;;;;;;;11.93;10.80;;;;;;;;;;4994926;28;20679;-61
2023/08/30 06:23:07;;;;;;;11.60;10.60;;;;;;;;;;5002980;28;20229;-61
2023/08/30 06:25:33;;;;;;;11.25;10.40;;;;;;;;;;4995748;28;20249;-61
2023/08/30 06:28:01;;;;;;;11.90;10.70;;;;;;;;;;4998822;28;20214;-63
2023/08/30 06:30:27;;;;;;;12.25;11.13;;;;;;;;;;4996369;28;20204;-63
2023/08/30 06:32:54;;;;;;;12.10;11.15;;;;;;;;;;4996626;28;20203;-63
2023/08/30 06:35:21;;;;;;;14.82;10.93;;;;;;;;;;4999623;28;20218;-63
2023/08/30 06:37:48;;;;;;;11.48;10.32;;;;;;;;;;4998264;28;20645;-63
2023/08/30 06:40:14;;;;;;;10.57;9.77;;;;;;;;;;5000094;28;20617;-63
2023/08/30 06:42:40;;;;;;;10.57;9.68;;;;;;;;;;5001550;28;20589;-63
2023/08/30 06:45:07;;;;;;;10.75;9.98;;;;;;;;;;4999829;28;20215;-64
2023/08/30 06:47:33;;;;;;;10.30;9.45;;;;;;;;;;5002001;28;20209;-64
2023/08/30 06:50:00;;;;;;;10.07;9.30;;;;;;;;;;5001998;28;20223;-63
2023/08/30 06:52:27;;;;;;;10.57;9.68;;;;;;;;;;4994481;28;20602;-63
2023/08/30 06:54:53;;;;;;;10.18;9.38;;;;;;;;;;4996909;28;20573;-63
2023/08/30 06:57:21;;;;;;;10.70;9.68;;;;;;;;;;4998628;28;20215;-63
2023/08/30 06:59:47;;;;;;;10.38;9.48;;;;;;;;;;4996338;28;20203;-64
2023/08/30 07:02:14;;;;;;;11.23;10.00;;;;;;;;;;4989777;28;20317;-63
2023/08/30 07:04:40;;;;;;;9.30;8.50;;;;;;;;;;4996504;28;20288;-62
2023/08/30 07:07:06;;;;;;;9.60;8.80;;;;;;;;;;4994134;28;20698;-63
2023/08/30 07:09:34;;;;;;;9.93;9.13;;;;;;;;;;4998518;28;20607;-62
2023/08/30 07:12:00;;;;;;;10.65;9.65;;;;;;;;;;4996090;28;20620;-63
2023/08/30 07:14:27;;;;;;;10.25;9.50;;;;;;;;;;4990157;28;20203;-61
2023/08/30 07:16:53;;;;;;;9.38;8.68;;;;;;;;;;4998544;28;20329;-64
2023/08/30 07:19:19;;;;;;;8.93;8.32;;;;;;;;;;4993937;28;20219;-63
2023/08/30 07:21:45;;;;;;;10.05;9.25;;;;;;;;;;4995481;28;20231;-63
2023/08/30 07:24:12;;;;;;;9.30;8.60;;;;;;;;;;4994386;28;20219;-64
2023/08/30 07:26:39;;;;;;;10.05;8.35;;;;;;;;;;4997969;28;20616;-64
2023/08/30 07:29:05;;;;;;;10.05;9.25;;;;;;;;;;4992705;28;20698;-63
2023/08/30 07:31:32;;;;;;;9.10;8.40;;;;;;;;;;4991524;28;20332;-64
2023/08/30 07:33:59;;;;;;;8.55;7.90;;;;;;;;;;4994876;28;20218;-64
2023/08/30 07:36:25;;;;;;;8.88;8.23;;;;;;;;;;4992173;28;20234;-62
2023/08/30 07:38:51;;;;;;;10.10;9.13;;;;;;;;;;4994157;28;20207;-64
2023/08/30 07:41:18;;;;;;;9.05;8.43;;;;;;;;;;4994607;28;20234;-65
2023/08/30 07:43:45;;;;;;;9.18;8.43;;;;;;;;;;4999811;28;20207;-64
2023/08/30 07:46:12;;;;;;;10.85;9.80;;;;;;;;;;4992242;28;20218;-64
2023/08/30 07:48:38;;;;;;;10.32;9.00;;;;;;;;;;4992123;28;20214;-63
2023/08/30 07:51:04;;;;;;;9.18;8.48;;;;;;;;;;4991289;28;20634;-63
2023/08/30 07:53:30;;;;;;;10.02;9.15;;;;;;;;;;4993487;28;20199;-63
2023/08/30 07:55:57;;;;;;;10.55;9.75;;;;;;;;;;4993717;28;20203;-64
2023/08/30 07:58:23;;;;;;;9.35;8.55;;;;;;;;;;4999201;28;20217;-62
2023/08/30 08:00:52;;;;;;;9.70;8.68;;;;;;;;;;4989460;28;20310;-63
2023/08/30 08:03:19;;;;;;;8.18;7.65;;;;;;;;;;4991225;28;20699;-62
2023/08/30 08:05:45;;;;;;;7.95;7.35;;;;;;;;;;4995445;28;20229;-64
2023/08/30 08:08:12;;;;;;;8.30;7.50;;;;;;;;;;4993435;28;20699;-64
2023/08/30 08:10:38;;;;;;;8.65;6.82;;;;;;;;;;4988646;28;20272;-64
2023/08/30 08:13:04;;;;;;;8.10;7.40;;;;;;;;;;4991014;28;20215;-65
2023/08/30 08:15:31;;;;;;;7.88;7.13;;;;;;;;;;4990532;28;20210;-65
2023/08/30 08:17:58;;;;;;;7.07;6.47;;;;;;;;;;4993922;28;20283;-65
2023/08/30 08:20:24;;;;;;;7.50;7.03;;;;;;;;;;4993474;28;20273;-64
2023/08/30 08:22:51;;;;;;;7.10;6.40;;;;;;;;;;4988294;28;20945;-64
2023/08/30 08:25:17;;;;;;;6.43;5.95;;;;;;;;;;4988626;28;20217;-64
2023/08/30 08:27:43;;;;;;;6.35;5.90;;;;;;;;;;4989405;28;20211;-64
2023/08/30 08:30:10;;;;;;;5.80;5.40;;;;;;;;;;4988252;28;20273;-63
2023/08/30 08:32:37;;;;;;;6.55;6.07;;;;;;;;;;4991589;28;20603;-62
2023/08/30 08:35:05;;;;;;;6.35;5.95;;;;;;;;;;4989209;28;20215;-63
2023/08/30 08:37:31;;;;;;;5.57;5.05;;;;;;;;;;4994732;28;20210;-63
2023/08/30 08:39:58;;;;;;;5.65;5.25;;;;;;;;;;4988978;28;20214;-63
2023/08/30 08:42:24;;;;;;;5.10;4.80;;;;;;;;;;4988633;28;20231;-63
2023/08/30 08:44:52;;;;;;;4.72;4.53;;;;;;;;;;4992533;28;20233;-63
2023/08/30 08:47:19;;;;;;;6.65;4.47;;;;;;;;;;4997019;28;20738;-64
2023/08/30 08:49:46;;;;;;;4.78;4.57;;;;;;;;;;4994075;28;20620;-62
2023/08/30 08:52:14;;;;;;;7.47;4.80;;;;;;;;;;4994395;28;20312;-63
2023/08/30 08:54:41;;;;;;;4.75;4.47;;;;;;;;;;4992815;28;20203;-63
2023/08/30 08:57:08;;;;;;;4.85;4.45;;;;;;;;;;4995731;28;20288;-62
2023/08/30 08:59:34;;;;;;;4.72;4.40;;;;;;;;;;4991992;28;20206;-64
2023/08/30 09:02:00;;;;;;;4.63;4.30;;;;;;;;;;4995580;28;20698;-63
2023/08/30 09:04:27;;;;;;;4.60;4.20;;;;;;;;;;4992401;28;20206;-63
2023/08/30 09:06:53;;;;;;;4.05;3.85;;;;;;;;;;4991009;28;20207;-62
2023/08/30 09:09:22;;;;;;;4.43;4.22;;;;;;;;;;4987784;28;20734;-64
2023/08/30 09:11:48;;;;;;;4.55;4.30;;;;;;;;;;4988189;28;20231;-63
2023/08/30 09:14:14;;;;;;;4.00;3.90;;;;;;;;;;4997335;28;20713;-63
2023/08/30 09:16:41;;;;;;;3.90;3.70;;;;;;;;;;4990461;28;20667;-63
2023/08/30 09:19:09;;;;;;;3.65;3.42;;;;;;;;;;4997196;28;20346;-62
2023/08/30 09:21:35;;;;;;;3.95;3.80;;;;;;;;;;4990493;28;20231;-62
2023/08/30 09:24:02;;;;;;;4.57;3.83;;;;;;;;;;4988092;28;20703;-60
2023/08/30 09:26:31;;;;;;;4.07;3.67;;;;;;;;;;4990567;28;20215;-63
2023/08/30 09:29:01;;;;;;;4.28;3.88;;;;;;;;;;4997101;28;20210;-63
2023/08/30 09:31:33;;;;;;;3.88;3.67;;;;;;;;;;4989794;28;20239;-63
2023/08/30 09:34:01;;;;;;;3.78;3.67;;;;;;;;;;4985704;28;20207;-64
2023/08/30 09:36:27;;;;;;;3.65;3.35;;;;;;;;;;4990498;28;20667;-64
2023/08/30 09:38:57;;;;;;;5.03;3.20;;;;;;;;;;4995930;28;20212;-63
2023/08/30 09:41:25;;;;;;;3.20;3.00;;;;;;;;;;4988826;28;20241;-64
2023/08/30 09:43:53;;;;;;;3.63;3.30;;;;;;;;;;4992897;28;20713;-64
2023/08/30 09:46:19;;;;;;;3.55;3.35;;;;;;;;;;4999431;28;20301;-63
2023/08/30 09:48:45;;;;;;;5.82;3.15;;;;;;;;;;4991549;28;20210;-66
2023/08/30 09:51:12;;;;;;;3.00;2.90;;;;;;;;;;4992317;28;20227;-64
2023/08/30 09:53:43;;;;;;;3.45;3.10;;;;;;;;;;4990995;28;20576;-64
2023/08/30 09:56:11;;;;;;;3.15;2.95;;;;;;;;;;4989174;28;20218;-63
2023/08/30 09:58:37;;;;;;;3.00;2.75;;;;;;;;;;4990068;28;20207;-64
2023/08/30 10:01:05;;;;;;;2.85;2.70;;;;;;;;;;4989840;28;20330;-65
2023/08/30 10:03:32;;;;;;;4.38;2.97;;;;;;;;;;4993157;28;20231;-64
2023/08/30 10:06:00;;;;;;;2.88;2.78;;;;;;;;;;4988213;28;20739;-65
2023/08/30 10:08:30;;;;;;;2.60;2.50;;;;;;;;;;4990171;28;20214;-64
2023/08/30 10:10:59;;;;;;;2.72;2.63;;;;;;;;;;4984998;28;20661;-63
2023/08/30 10:13:25;;;;;;;2.47;2.38;;;;;;;;;;4988948;28;20616;-64
2023/08/30 10:15:52;;;;;;;3.00;2.80;;;;;;;;;;4990100;28;20598;-61
2023/08/30 10:18:21;;;;;;;2.40;2.40;;;;;;;;;;4990077;28;20219;-62
2023/08/30 10:20:48;;;;;;;2.13;2.10;;;;;;;;;;4994524;28;20301;-62
2023/08/30 10:23:15;;;;;;;2.08;2.08;;;;;;;;;;4991405;28;20234;-63
2023/08/30 10:25:42;;;;;;;2.88;2.60;;;;;;;;;;4994607;28;20202;-62
2023/08/30 10:28:09;;;;;;;2.25;2.15;;;;;;;;;;4993615;28;20215;-63
2023/08/30 10:30:35;;;;;;;2.90;2.20;;;;;;;;;;4993436;28;20309;-62
2023/08/30 10:33:03;;;;;;;2.88;2.15;;;;;;;;;;4999681;28;20682;-62
2023/08/30 10:35:30;;;;;;;3.70;2.40;;;;;;;;;;4995450;28;20251;-64
2023/08/30 10:37:57;;;;;;;3.20;2.10;;;;;;;;;;4999501;28;20218;-64
2023/08/30 10:40:23;;;;;;;4.10;2.60;;;;;;;;;;4992881;28;20212;-63
2023/08/30 10:42:59;;;;;;;7.70;2.38;;;;;;;;;;4995863;28;20233;-63
2023/08/30 10:45:25;;;;;;;2.00;1.90;;;;;;;;;;4994060;28;20693;-62
2023/08/30 10:47:55;;;;;;;1.80;1.70;;;;;;;;;;4999951;28;20230;-62
2023/08/30 10:50:28;;;;;;;2.10;2.00;;;;;;;;;;4999904;28;20578;-62
2023/08/30 10:52:56;;;;;;;2.45;1.92;;;;;;;;;;4991828;28;20226;-62
2023/08/30 10:55:23;;;;;;;2.08;1.98;;;;;;;;;;4992718;28;20561;-62
2023/08/30 10:57:58;;;;;;;2.83;2.10;;;;;;;;;;4998910;28;20664;-62
2023/08/30 11:00:24;;;;;;;1.50;1.50;;;;;;;;;;4997677;28;20694;-62
2023/08/30 11:02:52;;;;;;;1.70;1.60;;;;;;;;;;4992196;28;20227;-65
2023/08/30 11:05:19;;;;;;;1.58;1.48;;;;;;;;;;4993055;28;20572;-63
2023/08/30 11:07:46;;;;;;;1.40;1.40;;;;;;;;;;4993625;28;20283;-62
2023/08/30 11:10:13;;;;;;;2.15;1.60;;;;;;;;;;4998520;28;20616;-62
2023/08/30 11:12:41;;;;;;;1.35;1.35;;;;;;;;;;4996195;28;20253;-64
2023/08/30 11:15:08;;;;;;;1.52;1.40;;;;;;;;;;4995108;28;20221;-62
2023/08/30 11:17:34;;;;;;;1.50;1.40;;;;;;;;;;4997149;28;20211;-62
2023/08/30 11:20:07;;;;;;;1.65;1.55;;;;;;;;;;5000688;28;20662;-63
2023/08/30 11:22:33;;;;;;;3.45;1.75;;;;;;;;;;4998298;28;20230;-63
2023/08/30 11:24:59;;;;;;;1.90;1.80;;;;;;;;;;4989545;28;20219;-64
2023/08/30 11:27:27;;;;;;;2.20;1.77;;;;;;;;;;4991235;28;20218;-64
2023/08/30 11:29:53;;;;;;;1.95;1.67;;;;;;;;;;4993807;28;20211;-64
2023/08/30 11:32:20;;;;;;;1.40;1.40;;;;;;;;;;4993882;28;20234;-63
2023/08/30 11:34:55;;;;;;;2.47;1.52;;;;;;;;;;4994565;28;20199;-63
2023/08/30 11:37:22;;;;;;;1.50;1.40;;;;;;;;;;4994280;28;20218;-65
2023/08/30 11:39:52;;;;;;;1.13;1.10;;;;;;;;;;4993113;28;20222;-64
2023/08/30 11:42:19;;;;;;;1.42;1.20;;;;;;;;;;4996609;28;20231;-64
2023/08/30 11:44:46;;;;;;;1.30;1.20;;;;;;;;;;4992386;28;20225;-63
2023/08/30 11:47:18;;;;;;;2.30;1.30;;;;;;;;;;4995190;28;20215;-64
2023/08/30 11:49:44;;;;;;;1.23;1.08;;;;;;;;;;4996961;28;20219;-64
2023/08/30 11:52:10;;;;;;;2.28;1.50;;;;;;;;;;4989970;28;20233;-64
2023/08/30 11:54:37;;;;;;;0.98;0.95;;;;;;;;;;4992632;28;20207;-63
2023/08/30 11:57:03;;;;;;;2.15;1.20;;;;;;;;;;4998347;28;20221;-64
2023/08/30 11:59:31;;;;;;;2.67;1.40;;;;;;;;;;4996582;28;20213;-63
2023/08/30 12:01:59;;;;;;;1.30;1.30;;;;;;;;;;4997674;28;20226;-63
2023/08/30 12:04:25;;;;;;;1.60;1.50;;;;;;;;;;4991030;28;20226;-64
2023/08/30 12:06:52;;;;;;;2.38;1.50;;;;;;;;;;4983137;28;20218;-64
2023/08/30 12:09:21;;;;;;;2.38;1.33;;;;;;;;;;4993750;28;20297;-65
2023/08/30 12:11:47;;;;;;;1.38;1.30;;;;;;;;;;4992933;28;20790;-66
2023/08/30 12:14:14;;;;;;;1.73;1.33;;;;;;;;;;4996722;28;20784;-64
2023/08/30 12:16:40;;;;;;;1.67;1.10;;;;;;;;;;4993585;28;20257;-64
2023/08/30 12:19:12;;;;;;;1.35;1.35;;;;;;;;;;5000818;28;20561;-63
2023/08/30 12:21:42;;;;;;;1.50;1.27;;;;;;;;;;4994985;28;20285;-63
2023/08/30 12:24:08;;;;;;;2.10;1.33;;;;;;;;;;4995229;28;20581;-64
2023/08/30 12:26:34;;;;;;;1.50;1.50;;;;;;;;;;4993473;28;20303;-65
2023/08/30 12:29:00;;;;;;;1.60;1.50;;;;;;;;;;4993183;28;20210;-64
2023/08/30 12:31:27;;;;;;;1.70;1.50;;;;;;;;;;4997648;28;20238;-65
2023/08/30 12:33:54;;;;;;;1.20;1.20;;;;;;;;;;4988990;28;20840;-64
2023/08/30 12:36:22;;;;;;;2.47;1.42;;;;;;;;;;4991703;28;20676;-64
2023/08/30 12:38:48;;;;;;;1.55;1.40;;;;;;;;;;4990421;28;20593;-64
2023/08/30 12:41:15;;;;;;;1.52;1.48;;;;;;;;;;4996230;28;20235;-64
2023/08/30 12:43:41;;;;;;;1.65;1.55;;;;;;;;;;4992014;28;20227;-64
2023/08/30 12:46:07;;;;;;;1.42;1.33;;;;;;;;;;5001465;28;20218;-63
2023/08/30 12:48:34;;;;;;;3.03;1.60;;;;;;;;;;5000213;28;20302;-63
2023/08/30 12:51:00;;;;;;;1.30;1.30;;;;;;;;;;4991768;28;20234;-64
2023/08/30 12:53:27;;;;;;;2.05;1.95;;;;;;;;;;4990131;28;20211;-65
2023/08/30 12:55:54;;;;;;;1.65;1.55;;;;;;;;;;5014350;23;20205;-66
2023/08/30 12:58:20;;;;;;;1.48;1.48;;;;;;;;;;4989335;28;20239;-67
2023/08/30 13:00:46;;;;;;;2.03;1.92;;;;;;;;;;5005155;28;20214;-65
2023/08/30 13:03:12;;;;;;;2.00;1.90;;;;;;;;;;4989499;28;20682;-65
2023/08/30 13:05:39;;;;;;;1.65;1.65;;;;;;;;;;4990305;28;20211;-67
2023/08/30 13:08:05;;;;;;;1.83;1.70;;;;;;;;;;4989260;28;20218;-67
2023/08/30 13:10:33;;;;;;;1.45;1.40;;;;;;;;;;4997764;28;20211;-67
2023/08/30 13:12:59;;;;;;;1.50;1.50;;;;;;;;;;4990457;28;20222;-65
2023/08/30 13:15:25;;;;;;;2.08;1.85;;;;;;;;;;4995822;28;20214;-65
2023/08/30 13:17:52;;;;;;;2.90;2.10;;;;;;;;;;4989721;28;20214;-64
2023/08/30 13:20:18;;;;;;;1.50;1.50;;;;;;;;;;4997056;28;20211;-65
2023/08/30 13:22:45;;;;;;;1.70;1.67;;;;;;;;;;4991094;28;20238;-66
2023/08/30 13:25:11;;;;;;;1.50;1.40;;;;;;;;;;4988344;28;20317;-67
2023/08/30 13:27:38;;;;;;;1.55;1.48;;;;;;;;;;4992611;28;20215;-66
2023/08/30 13:30:05;;;;;;;2.00;1.60;;;;;;;;;;4991848;28;20215;-66
2023/08/30 13:32:32;;;;;;;2.63;1.70;;;;;;;;;;4994810;28;20241;-67
2023/08/30 13:34:59;;;;;;;1.50;1.50;;;;;;;;;;4995407;28;20222;-68
2023/08/30 13:37:25;;;;;;;1.80;1.80;;;;;;;;;;4993406;28;20214;-66
2023/08/30 13:39:52;;;;;;;1.67;1.67;;;;;;;;;;4988768;28;20629;-65
2023/08/30 13:42:19;;;;;;;1.42;1.42;;;;;;;;;;4992483;28;20235;-66
2023/08/30 13:44:46;;;;;;;3.67;1.40;;;;;;;;;;4998008;28;20233;-66
2023/08/30 13:47:13;;;;;;;1.58;1.58;;;;;;;;;;5000119;28;20221;-66
2023/08/30 13:49:39;;;;;;;1.23;1.23;;;;;;;;;;4999890;28;20221;-66
2023/08/30 13:52:05;;;;;;;1.48;1.48;;;;;;;;;;4989287;28;20235;-67
2023/08/30 13:54:32;;;;;;;1.50;1.48;;;;;;;;;;4991892;28;20211;-68
2023/08/30 13:56:58;;;;;;;1.33;1.23;;;;;;;;;;5002964;28;20222;-66
2023/08/30 13:59:25;;;;;;;1.88;1.88;;;;;;;;;;5001685;28;20305;-66
2023/08/30 14:01:52;;;;;;;1.50;1.50;;;;;;;;;;5001591;28;20230;-66
2023/08/30 14:04:18;;;;;;;1.70;1.60;;;;;;;;;;4997676;28;20234;-66
2023/08/30 14:06:45;;;;;;;1.50;1.50;;;;;;;;;;4994457;28;20203;-66
2023/08/30 14:09:11;;;;;;;1.88;1.40;;;;;;;;;;5002882;28;20210;-66
2023/08/30 14:11:38;;;;;;;1.42;1.35;;;;;;;;;;4999675;28;20703;-66
2023/08/30 14:14:04;;;;;;;1.55;1.55;;;;;;;;;;4997497;28;20742;-66
2023/08/30 14:16:30;;;;;;;1.30;1.30;;;;;;;;;;5002930;28;20215;-66
2023/08/30 14:18:59;;;;;;;1.55;1.45;;;;;;;;;;5000863;28;20292;-66
2023/08/30 14:21:26;;;;;;;1.50;1.50;;;;;;;;;;4997799;28;20760;-66
2023/08/30 14:23:52;;;;;;;1.23;1.10;;;;;;;;;;5000421;28;20238;-65
2023/08/30 14:26:18;;;;;;;0.90;0.90;;;;;;;;;;4999490;28;20590;-67
2023/08/30 14:28:45;;;;;;;1.00;1.00;;;;;;;;;;4991828;28;20211;-68